Time;durP1;ratioP1;P1;durP2;ratioP2;P2;SDS_P1;SDS_P2;PMS_P1;PMS_P2;Temp;Humidity;BMP_temperature;BMP_pressure;BME280_temperature;BME280_humidity;BME280_pressure;Samples;Min_cycle;Max_cycle;Signal;HPM_P1;HPM_P2
2023/09/16 00:00:54;;;;;;;8.50;7.70;;;26.60;49.50;;;;;;5050989;28;20446;-78
2023/09/16 00:03:22;;;;;;;8.20;7.23;;;26.60;49.50;;;;;;5051211;28;20404;-78
2023/09/16 00:05:51;;;;;;;7.37;6.63;;;26.50;49.50;;;;;;5051088;28;20455;-77
2023/09/16 00:08:19;;;;;;;6.87;6.17;;;26.50;49.60;;;;;;5051019;28;20446;-77
2023/09/16 00:10:48;;;;;;;6.87;6.27;;;26.50;49.60;;;;;;5051064;28;20525;-77
2023/09/16 00:13:18;;;;;;;6.60;6.00;;;26.50;49.70;;;;;;5050863;28;20464;-76
2023/09/16 00:15:48;;;;;;;6.50;5.90;;;26.50;49.80;;;;;;5052595;28;20480;-78
2023/09/16 00:18:16;;;;;;;6.80;6.20;;;26.50;49.70;;;;;;5054868;28;20423;-77
2023/09/16 00:20:44;;;;;;;6.60;5.97;;;26.50;49.80;;;;;;5055057;28;20448;-78
2023/09/16 00:23:14;;;;;;;7.20;5.70;;;26.40;49.80;;;;;;5054746;28;20421;-75
2023/09/16 00:25:41;;;;;;;6.93;6.10;;;26.40;49.70;;;;;;5054456;28;20553;-78
2023/09/16 00:28:10;;;;;;;6.27;5.77;;;26.40;49.80;;;;;;5054920;28;20462;-78
2023/09/16 00:30:42;;;;;;;6.50;5.90;;;26.40;49.80;;;;;;5055170;28;20419;-79
2023/09/16 00:33:10;;;;;;;5.93;5.43;;;26.40;49.80;;;;;;5055513;28;20457;-80
2023/09/16 00:35:38;;;;;;;5.70;5.20;;;26.40;50.00;;;;;;5055420;28;20440;-78
2023/09/16 00:38:07;;;;;;;5.40;4.90;;;26.40;49.80;;;;;;5055381;28;20991;-79
2023/09/16 00:40:35;;;;;;;6.23;5.70;;;26.30;49.80;;;;;;5055806;28;20865;-80
2023/09/16 00:43:04;;;;;;;5.70;5.20;;;26.30;49.90;;;;;;5055514;28;20467;-79
2023/09/16 00:45:33;;;;;;;5.30;4.90;;;26.30;49.90;;;;;;5056840;28;20452;-80
2023/09/16 00:48:03;;;;;;;5.63;5.03;;;26.30;50.00;;;;;;5056631;28;20442;-79
2023/09/16 00:50:31;;;;;;;5.87;5.37;;;26.30;50.50;;;;;;5056159;28;20454;-80
2023/09/16 00:53:00;;;;;;;5.47;5.07;;;26.30;49.90;;;;;;5054448;28;20449;-79
2023/09/16 00:55:28;;;;;;;5.87;5.37;;;26.30;50.00;;;;;;5054006;28;21060;-78
2023/09/16 00:57:56;;;;;;;5.43;4.97;;;26.20;49.90;;;;;;5054478;28;21004;-79
2023/09/16 01:00:26;;;;;;;6.20;5.37;;;26.20;50.00;;;;;;5054343;28;20458;-78
2023/09/16 01:02:54;;;;;;;4.73;4.43;;;26.20;50.10;;;;;;5054178;28;20529;-79
2023/09/16 01:05:24;;;;;;;5.23;4.83;;;26.20;49.70;;;;;;5053924;28;20429;-79
2023/09/16 01:07:52;;;;;;;5.80;5.30;;;26.20;50.00;;;;;;5054111;28;20434;-78
2023/09/16 01:10:22;;;;;;;5.37;4.87;;;26.20;50.10;;;;;;5054273;28;20424;-78
2023/09/16 01:12:52;;;;;;;5.03;4.63;;;26.10;50.00;;;;;;5054167;28;20405;-79
2023/09/16 01:15:22;;;;;;;4.77;4.43;;;26.10;50.10;;;;;;5054242;28;20474;-78
2023/09/16 01:17:54;;;;;;;5.37;4.97;;;26.10;50.30;;;;;;5054420;28;20545;-79
2023/09/16 01:20:24;;;;;;;5.57;5.07;;;26.10;50.00;;;;;;5055076;28;20425;-78
2023/09/16 01:22:52;;;;;;;4.83;4.47;;;26.10;50.20;;;;;;5055101;28;20434;-78
2023/09/16 01:25:22;;;;;;;4.97;4.57;;;26.10;50.10;;;;;;5054676;28;20901;-78
2023/09/16 01:27:50;;;;;;;5.30;4.90;;;26.00;50.20;;;;;;5053560;28;21040;-78
2023/09/16 01:30:18;;;;;;;4.90;4.50;;;26.00;50.10;;;;;;5054083;28;20446;-79
2023/09/16 01:32:48;;;;;;;4.83;4.43;;;26.00;50.30;;;;;;5053946;28;20532;-78
2023/09/16 01:35:17;;;;;;;4.90;4.50;;;26.00;50.20;;;;;;5053286;28;20499;-78
2023/09/16 01:37:45;;;;;;;5.13;4.10;;;25.90;50.30;;;;;;5053623;28;20485;-77
2023/09/16 01:40:13;;;;;;;4.73;4.33;;;25.90;50.30;;;;;;5053775;28;20447;-78
2023/09/16 01:42:43;;;;;;;4.47;4.10;;;25.90;50.20;;;;;;5053392;28;20447;-78
2023/09/16 01:45:11;;;;;;;4.30;4.00;;;25.90;50.40;;;;;;5053218;28;20519;-78
2023/09/16 01:47:39;;;;;;;4.17;3.93;;;25.90;50.30;;;;;;5053689;28;20920;-79
2023/09/16 01:50:08;;;;;;;4.80;4.40;;;25.80;50.20;;;;;;5052829;28;21022;-79
2023/09/16 01:52:36;;;;;;;4.73;4.33;;;25.80;50.60;;;;;;5053465;28;20435;-78
2023/09/16 01:55:05;;;;;;;4.70;4.40;;;25.70;50.40;;;;;;5053230;28;20479;-77
2023/09/16 01:57:33;;;;;;;4.13;3.83;;;25.80;50.50;;;;;;5053094;28;20434;-78
2023/09/16 02:00:05;;;;;;;4.57;4.17;;;25.80;50.50;;;;;;5053337;28;20439;-78
2023/09/16 02:02:32;;;;;;;4.30;4.00;;;25.70;51.00;;;;;;5053115;28;20421;-76
2023/09/16 02:05:01;;;;;;;4.40;4.10;;;25.70;50.50;;;;;;5053060;28;20486;-77
2023/09/16 02:07:29;;;;;;;4.30;4.00;;;25.70;50.60;;;;;;5053043;28;20482;-77
2023/09/16 02:09:57;;;;;;;5.00;4.60;;;25.70;50.60;;;;;;5052853;28;20790;-77
2023/09/16 02:12:25;;;;;;;4.30;4.00;;;25.60;50.60;;;;;;5052866;28;20496;-77
2023/09/16 02:14:53;;;;;;;4.50;4.10;;;25.60;50.50;;;;;;5052566;28;20499;-78
2023/09/16 02:17:23;;;;;;;4.73;4.33;;;25.60;50.50;;;;;;5052984;28;20497;-77
2023/09/16 02:19:52;;;;;;;4.30;3.97;;;25.60;50.50;;;;;;5052922;28;20419;-77
2023/09/16 02:22:20;;;;;;;4.70;4.30;;;25.60;50.70;;;;;;5052649;28;20831;-78
2023/09/16 02:24:48;;;;;;;4.83;4.43;;;25.60;50.60;;;;;;5053647;28;20533;-79
2023/09/16 02:27:16;;;;;;;4.20;3.90;;;25.50;50.60;;;;;;5052882;28;20420;-78
2023/09/16 02:29:44;;;;;;;4.40;4.10;;;25.50;50.60;;;;;;5054073;28;20445;-79
2023/09/16 02:32:12;;;;;;;4.70;4.30;;;25.50;50.60;;;;;;5056164;28;20417;-79
2023/09/16 02:34:42;;;;;;;4.60;4.27;;;25.50;50.80;;;;;;5056262;28;20569;-80
2023/09/16 02:37:10;;;;;;;3.97;3.77;;;25.50;50.70;;;;;;5055417;28;20453;-79
2023/09/16 02:39:40;;;;;;;4.57;4.17;;;25.50;50.80;;;;;;5053251;28;20790;-79
2023/09/16 02:42:08;;;;;;;3.80;3.60;;;25.40;50.70;;;;;;5052680;28;20434;-78
2023/09/16 02:44:36;;;;;;;12.70;10.50;;;25.40;50.70;;;;;;5052294;28;20460;-78
2023/09/16 02:47:05;;;;;;;15.40;12.10;;;25.40;50.80;;;;;;5052271;28;20530;-79
2023/09/16 02:49:33;;;;;;;18.70;13.43;;;25.40;50.80;;;;;;5052352;28;20525;-79
2023/09/16 02:52:02;;;;;;;17.47;14.00;;;25.40;50.90;;;;;;5052575;28;20421;-79
2023/09/16 02:54:30;;;;;;;16.20;12.83;;;25.40;50.90;;;;;;5051866;28;20474;-79
2023/09/16 02:56:58;;;;;;;17.13;13.33;;;25.40;51.60;;;;;;5051899;28;20409;-78
2023/09/16 02:59:25;;;;;;;20.07;15.27;;;25.40;50.90;;;;;;5052104;28;20406;-78
2023/09/16 03:01:53;;;;;;;18.77;14.47;;;25.30;50.80;;;;;;5051722;28;20448;-79
2023/09/16 03:04:21;;;;;;;18.00;13.73;;;25.30;51.00;;;;;;5051820;28;20465;-79
2023/09/16 03:06:49;;;;;;;19.63;15.40;;;25.30;50.90;;;;;;5053304;28;20434;-80
2023/09/16 03:09:19;;;;;;;19.43;15.17;;;25.30;51.00;;;;;;5054310;28;20409;-81
2023/09/16 03:11:47;;;;;;;18.37;14.50;;;25.30;51.00;;;;;;5053904;28;20413;-79
2023/09/16 03:14:15;;;;;;;19.17;14.90;;;25.20;50.90;;;;;;5056349;28;20512;-79
2023/09/16 03:16:43;;;;;;;19.27;14.47;;;25.20;50.90;;;;;;5054484;28;20442;-78
2023/09/16 03:19:11;;;;;;;21.97;14.93;;;25.20;51.00;;;;;;5053675;28;20442;-78
2023/09/16 03:21:39;;;;;;;19.60;14.57;;;25.20;51.20;;;;;;5052632;28;20474;-80
2023/09/16 03:24:07;;;;;;;17.03;13.80;;;25.20;51.20;;;;;;5051841;28;20491;-79
2023/09/16 03:26:36;;;;;;;17.23;14.00;;;25.10;51.10;;;;;;5051555;28;20433;-78
2023/09/16 03:29:05;;;;;;;18.03;14.00;;;25.20;51.10;;;;;;5051054;28;20445;-77
2023/09/16 03:31:32;;;;;;;17.40;13.80;;;25.10;51.30;;;;;;5051165;28;20425;-77
2023/09/16 03:34:01;;;;;;;17.10;13.63;;;25.10;51.20;;;;;;5051362;28;20474;-77
2023/09/16 03:36:29;;;;;;;18.40;14.10;;;25.10;51.20;;;;;;5051338;28;20449;-77
2023/09/16 03:38:58;;;;;;;18.83;14.83;;;25.10;51.10;;;;;;5051112;28;20431;-77
2023/09/16 03:41:26;;;;;;;15.73;12.70;;;25.00;51.20;;;;;;5051322;28;20442;-77
2023/09/16 03:43:58;;;;;;;16.27;13.43;;;25.00;51.40;;;;;;5051269;28;20528;-78
2023/09/16 03:46:26;;;;;;;17.10;12.53;;;25.00;51.30;;;;;;5051074;28;20409;-80
2023/09/16 03:48:54;;;;;;;17.47;12.67;;;25.00;51.30;;;;;;5050973;28;20446;-79
2023/09/16 03:51:22;;;;;;;19.00;13.43;;;25.00;51.50;;;;;;5051145;28;20920;-80
2023/09/16 03:53:50;;;;;;;15.13;11.93;;;25.00;51.20;;;;;;5051294;28;20521;-80
2023/09/16 03:56:18;;;;;;;14.77;12.30;;;25.00;51.40;;;;;;5051447;28;20445;-80
2023/09/16 03:58:46;;;;;;;14.80;12.33;;;25.00;51.30;;;;;;5051147;28;20451;-79
2023/09/16 04:01:16;;;;;;;15.90;12.37;;;25.00;51.20;;;;;;5051422;28;20435;-79
2023/09/16 04:03:44;;;;;;;15.40;11.73;;;25.00;51.40;;;;;;5051146;28;20424;-79
2023/09/16 04:06:12;;;;;;;15.87;12.40;;;24.90;51.40;;;;;;5051021;28;20489;-80
2023/09/16 04:08:41;;;;;;;16.20;12.53;;;24.90;51.40;;;;;;5050978;28;20450;-79
2023/09/16 04:11:09;;;;;;;15.40;11.90;;;24.90;51.40;;;;;;5051217;28;20437;-80
2023/09/16 04:13:38;;;;;;;14.83;11.73;;;24.90;51.50;;;;;;5050946;28;20434;-80
2023/09/16 04:16:06;;;;;;;13.30;10.70;;;24.90;51.40;;;;;;5050835;28;20574;-80
2023/09/16 04:18:35;;;;;;;13.90;11.70;;;24.90;51.50;;;;;;5051394;28;20446;-80
2023/09/16 04:21:04;;;;;;;13.60;10.43;;;24.80;51.50;;;;;;5051510;28;20475;-78
2023/09/16 04:23:31;;;;;;;14.40;11.27;;;24.80;51.40;;;;;;5055070;28;20477;-81
2023/09/16 04:26:00;;;;;;;13.77;10.53;;;24.80;51.40;;;;;;5053521;28;20470;-80
2023/09/16 04:28:28;;;;;;;14.50;11.47;;;24.80;51.50;;;;;;5053014;28;20439;-81
2023/09/16 04:30:58;;;;;;;12.27;10.50;;;24.80;51.60;;;;;;5054330;28;20443;-81
2023/09/16 04:33:26;;;;;;;13.43;10.37;;;24.80;51.50;;;;;;5053688;28;20446;-79
2023/09/16 04:35:56;;;;;;;12.77;10.70;;;24.70;51.50;;;;;;5051118;28;20513;-78
2023/09/16 04:38:24;;;;;;;13.70;10.90;;;24.70;51.60;;;;;;5051125;28;20525;-78
2023/09/16 04:40:52;;;;;;;12.10;10.20;;;24.70;51.40;;;;;;5051570;28;20438;-79
2023/09/16 04:43:20;;;;;;;11.57;9.87;;;24.70;51.60;;;;;;5050699;28;20417;-78
2023/09/16 04:45:49;;;;;;;11.80;9.77;;;24.70;51.60;;;;;;5050923;28;20472;-78
2023/09/16 04:48:17;;;;;;;15.07;10.13;;;24.70;51.60;;;;;;5050985;28;20439;-78
2023/09/16 04:50:46;;;;;;;11.90;10.03;;;24.70;51.70;;;;;;5050642;28;20777;-79
2023/09/16 04:53:16;;;;;;;12.10;9.70;;;24.60;51.60;;;;;;5052046;28;20952;-80
2023/09/16 04:55:44;;;;;;;12.60;10.00;;;24.60;51.70;;;;;;5051756;28;20532;-78
2023/09/16 04:58:12;;;;;;;11.60;9.77;;;24.60;51.60;;;;;;5050975;28;20458;-77
2023/09/16 05:00:41;;;;;;;12.40;10.30;;;24.60;51.80;;;;;;5050819;28;20446;-77
2023/09/16 05:03:10;;;;;;;12.07;10.17;;;24.60;51.70;;;;;;5054440;28;20442;-79
2023/09/16 05:05:38;;;;;;;12.63;9.40;;;24.60;51.70;;;;;;5054356;28;20467;-79
2023/09/16 05:08:06;;;;;;;10.37;8.87;;;24.50;51.50;;;;;;5053927;28;20521;-78
2023/09/16 05:10:35;;;;;;;9.20;8.23;;;24.50;51.80;;;;;;5054163;28;21000;-78
2023/09/16 05:13:04;;;;;;;10.70;8.20;;;24.60;51.90;;;;;;5054297;28;20512;-79
2023/09/16 05:15:32;;;;;;;9.43;8.40;;;24.50;51.80;;;;;;5053991;28;20459;-77
2023/09/16 05:18:00;;;;;;;10.10;8.60;;;24.50;51.60;;;;;;5053874;28;20500;-79
2023/09/16 05:20:32;;;;;;;9.90;8.43;;;24.50;51.70;;;;;;5053749;28;20434;-77
2023/09/16 05:23:01;;;;;;;9.87;8.60;;;24.50;52.30;;;;;;5053793;28;20481;-78
2023/09/16 05:25:29;;;;;;;9.33;7.90;;;24.50;51.70;;;;;;5054069;28;20846;-79
2023/09/16 05:27:59;;;;;;;8.50;7.60;;;24.50;51.70;;;;;;5054658;28;20450;-78
2023/09/16 05:30:27;;;;;;;10.53;8.50;;;24.50;51.80;;;;;;5054312;28;20485;-79
2023/09/16 05:32:55;;;;;;;9.20;8.17;;;24.40;51.70;;;;;;5054330;28;20509;-78
2023/09/16 05:35:23;;;;;;;10.60;7.70;;;24.40;51.80;;;;;;5054464;28;20444;-78
2023/09/16 05:37:51;;;;;;;9.27;8.13;;;24.40;52.00;;;;;;5054098;28;20505;-79
2023/09/16 05:40:19;;;;;;;8.33;7.43;;;24.40;51.90;;;;;;5054784;28;20526;-78
2023/09/16 05:42:47;;;;;;;8.10;7.30;;;24.40;51.90;;;;;;5054129;28;20545;-78
2023/09/16 05:45:17;;;;;;;9.50;8.00;;;24.40;51.70;;;;;;5054192;28;20462;-78
2023/09/16 05:47:45;;;;;;;9.80;7.90;;;24.40;51.80;;;;;;5053470;28;20509;-77
2023/09/16 05:50:13;;;;;;;9.53;7.60;;;24.40;51.80;;;;;;5054186;28;20469;-78
2023/09/16 05:52:41;;;;;;;8.03;6.97;;;24.40;51.90;;;;;;5053446;28;20446;-79
2023/09/16 05:55:10;;;;;;;8.50;7.20;;;24.40;51.70;;;;;;5053855;28;20553;-78
2023/09/16 05:57:38;;;;;;;8.73;7.83;;;24.40;51.70;;;;;;5053543;28;20474;-79
2023/09/16 06:00:08;;;;;;;8.37;7.47;;;24.40;51.90;;;;;;5053895;28;20665;-79
2023/09/16 06:02:39;;;;;;;7.20;6.50;;;24.40;51.80;;;;;;5053447;28;20473;-80
2023/09/16 06:05:08;;;;;;;7.10;6.40;;;24.50;51.80;;;;;;5053290;28;20462;-80
2023/09/16 06:07:36;;;;;;;7.60;6.60;;;24.50;51.80;;;;;;5053480;28;20488;-79
2023/09/16 06:10:06;;;;;;;7.10;6.40;;;24.50;51.80;;;;;;5052889;28;20442;-80
2023/09/16 06:12:35;;;;;;;7.70;6.53;;;24.50;51.80;;;;;;5052875;28;20405;-80
2023/09/16 06:15:03;;;;;;;7.93;7.13;;;24.50;51.80;;;;;;5053388;28;20463;-79
2023/09/16 06:17:31;;;;;;;6.90;6.20;;;24.50;51.70;;;;;;5054363;28;20506;-78
2023/09/16 06:20:00;;;;;;;6.70;6.00;;;24.50;51.70;;;;;;5052813;28;20522;-77
2023/09/16 06:22:28;;;;;;;7.10;6.40;;;24.50;51.30;;;;;;5052997;28;20512;-79
2023/09/16 06:24:56;;;;;;;7.17;6.47;;;24.60;51.70;;;;;;5052335;28;20441;-77
2023/09/16 06:27:24;;;;;;;7.30;6.60;;;24.50;51.50;;;;;;5052919;28;20441;-78
2023/09/16 06:29:52;;;;;;;7.30;6.30;;;24.60;51.70;;;;;;5052736;28;20453;-78
2023/09/16 06:32:21;;;;;;;8.43;6.70;;;24.60;51.50;;;;;;5052834;28;20447;-77
2023/09/16 06:34:49;;;;;;;7.57;6.80;;;24.60;51.40;;;;;;5052194;28;20503;-78
2023/09/16 06:37:19;;;;;;;8.33;6.83;;;24.60;51.50;;;;;;5052448;28;20474;-78
2023/09/16 06:39:47;;;;;;;7.20;6.50;;;24.60;51.70;;;;;;5051905;28;21018;-76
2023/09/16 06:42:16;;;;;;;6.70;5.80;;;24.60;51.40;;;;;;5051736;28;20409;-77
2023/09/16 06:44:43;;;;;;;6.90;6.20;;;24.60;51.50;;;;;;5051975;28;20436;-77
2023/09/16 06:47:11;;;;;;;6.27;5.67;;;24.60;51.50;;;;;;5052409;28;20500;-79
2023/09/16 06:49:39;;;;;;;6.87;6.10;;;24.60;51.30;;;;;;5051873;28;20892;-78
2023/09/16 06:52:07;;;;;;;10.43;6.27;;;24.60;51.40;;;;;;5052393;28;20438;-77
2023/09/16 06:54:37;;;;;;;6.93;6.23;;;24.60;51.40;;;;;;5052350;28;20964;-78
2023/09/16 06:57:05;;;;;;;6.60;6.00;;;24.60;51.40;;;;;;5052030;28;20502;-78
2023/09/16 06:59:32;;;;;;;6.20;5.60;;;24.60;51.50;;;;;;5052120;28;20425;-78
2023/09/16 07:02:01;;;;;;;6.23;5.60;;;24.70;51.50;;;;;;5051875;28;20814;-75
2023/09/16 07:04:28;;;;;;;6.53;5.93;;;24.70;51.20;;;;;;5051414;28;20465;-74
2023/09/16 07:06:57;;;;;;;7.00;6.40;;;24.70;51.40;;;;;;5052092;28;20438;-77
2023/09/16 07:09:25;;;;;;;6.93;6.23;;;24.70;51.40;;;;;;5052006;28;20461;-77
2023/09/16 07:11:54;;;;;;;6.43;5.83;;;24.70;51.30;;;;;;5051700;28;20508;-77
2023/09/16 07:14:22;;;;;;;5.90;5.40;;;24.70;51.30;;;;;;5051757;28;20458;-79
2023/09/16 07:16:50;;;;;;;8.13;6.30;;;24.70;51.30;;;;;;5051270;28;20497;-79
2023/09/16 07:19:18;;;;;;;6.33;5.73;;;24.80;51.40;;;;;;5050478;28;20450;-77
2023/09/16 07:21:47;;;;;;;6.47;5.83;;;24.80;51.40;;;;;;5051597;28;20442;-79
2023/09/16 07:24:14;;;;;;;6.30;5.70;;;24.70;51.20;;;;;;5050969;28;20449;-77
2023/09/16 07:26:44;;;;;;;5.53;5.13;;;24.80;51.20;;;;;;5052049;28;20529;-80
2023/09/16 07:29:13;;;;;;;6.07;5.57;;;24.70;51.20;;;;;;5051287;28;20454;-78
2023/09/16 07:31:41;;;;;;;6.20;5.60;;;24.80;51.30;;;;;;5051312;28;20450;-78
2023/09/16 07:34:09;;;;;;;7.40;6.63;;;24.80;51.50;;;;;;5051226;28;20490;-80
2023/09/16 07:36:38;;;;;;;6.13;5.53;;;24.80;51.30;;;;;;5051484;28;20478;-76
2023/09/16 07:39:06;;;;;;;6.03;5.47;;;24.80;51.20;;;;;;5051442;28;20450;-77
2023/09/16 07:41:34;;;;;;;5.97;5.47;;;24.90;51.20;;;;;;5051598;28;20442;-78
2023/09/16 07:44:06;;;;;;;6.67;6.07;;;24.90;51.10;;;;;;5051183;28;20455;-78
2023/09/16 07:46:35;;;;;;;6.10;5.50;;;24.90;51.10;;;;;;5051654;28;20405;-77
2023/09/16 07:49:04;;;;;;;5.60;5.10;;;24.90;51.20;;;;;;5051254;28;20518;-78
2023/09/16 07:51:31;;;;;;;6.13;5.53;;;24.90;51.10;;;;;;5051413;28;20434;-77
2023/09/16 07:54:01;;;;;;;6.50;5.90;;;25.00;51.20;;;;;;5051533;28;20465;-77
2023/09/16 07:56:29;;;;;;;5.37;4.97;;;25.00;51.30;;;;;;5051163;28;20462;-78
2023/09/16 07:58:58;;;;;;;6.00;5.50;;;25.00;51.10;;;;;;5051320;28;20459;-77
2023/09/16 08:01:25;;;;;;;5.57;5.07;;;25.00;51.00;;;;;;5051286;28;20526;-77
2023/09/16 08:03:55;;;;;;;5.80;4.87;;;25.00;51.10;;;;;;5051444;28;21007;-77
2023/09/16 08:06:23;;;;;;;6.10;5.50;;;25.00;51.00;;;;;;5051403;28;20459;-79
2023/09/16 08:08:52;;;;;;;6.00;5.37;;;25.00;51.10;;;;;;5053389;28;20467;-78
2023/09/16 08:11:20;;;;;;;5.43;4.93;;;25.00;51.10;;;;;;5054396;28;20450;-80
2023/09/16 08:13:51;;;;;;;5.37;4.93;;;25.10;51.10;;;;;;5053097;28;20476;-78
2023/09/16 08:16:19;;;;;;;5.30;4.83;;;25.10;51.00;;;;;;5051439;28;20496;-77
2023/09/16 08:18:47;;;;;;;5.77;5.27;;;25.10;51.00;;;;;;5050832;28;20474;-77
2023/09/16 08:21:17;;;;;;;5.87;5.37;;;25.10;51.10;;;;;;5051794;28;20500;-76
2023/09/16 08:23:45;;;;;;;5.23;4.83;;;25.20;51.00;;;;;;5051007;28;20542;-76
2023/09/16 08:26:13;;;;;;;5.43;5.03;;;25.20;50.90;;;;;;5051042;28;20409;-76
2023/09/16 08:28:41;;;;;;;5.60;5.10;;;25.30;50.90;;;;;;5051162;28;20421;-76
2023/09/16 08:31:09;;;;;;;4.67;4.33;;;25.30;51.00;;;;;;5051150;28;20499;-78
2023/09/16 08:33:37;;;;;;;5.20;4.70;;;25.30;50.90;;;;;;5050835;28;20512;-76
2023/09/16 08:36:05;;;;;;;5.57;5.10;;;25.40;50.90;;;;;;5051012;28;20434;-76
2023/09/16 08:38:35;;;;;;;5.53;5.03;;;25.30;50.80;;;;;;5055421;28;20478;-77
2023/09/16 08:41:07;;;;;;;4.93;4.53;;;25.40;50.80;;;;;;5057189;28;20421;-79
2023/09/16 08:43:38;;;;;;;5.50;5.00;;;25.40;50.80;;;;;;5057615;28;20521;-76
2023/09/16 08:46:09;;;;;;;5.27;4.80;;;25.40;50.60;;;;;;5055528;28;20419;-76
2023/09/16 08:48:38;;;;;;;6.07;5.17;;;25.40;50.70;;;;;;5054631;28;20416;-76
2023/09/16 08:51:06;;;;;;;5.57;5.07;;;25.50;50.70;;;;;;5055004;28;20438;-77
2023/09/16 08:53:36;;;;;;;6.77;4.70;;;25.50;50.80;;;;;;5055013;28;20477;-78
2023/09/16 08:56:05;;;;;;;5.60;5.10;;;25.50;50.50;;;;;;5055582;28;20413;-78
2023/09/16 08:58:34;;;;;;;5.30;4.80;;;25.60;50.50;;;;;;5054470;28;20436;-76
2023/09/16 09:01:02;;;;;;;5.93;5.43;;;25.60;50.50;;;;;;5054544;28;20529;-77
2023/09/16 09:03:30;;;;;;;4.90;4.60;;;25.70;50.50;;;;;;5054750;28;20435;-79
2023/09/16 09:05:59;;;;;;;5.83;5.33;;;25.70;50.40;;;;;;5054248;28;20445;-78
2023/09/16 09:08:28;;;;;;;5.80;5.30;;;25.70;50.50;;;;;;5054593;28;20430;-78
2023/09/16 09:10:57;;;;;;;5.40;5.00;;;25.80;50.40;;;;;;5054216;28;20405;-78
2023/09/16 09:13:26;;;;;;;5.20;4.80;;;25.80;50.30;;;;;;5055006;28;20437;-80
2023/09/16 09:15:59;;;;;;;5.53;5.13;;;25.80;50.40;;;;;;5056706;28;20471;-76
2023/09/16 09:18:29;;;;;;;4.83;4.53;;;25.80;50.20;;;;;;5054417;28;20505;-77
2023/09/16 09:20:56;;;;;;;5.73;5.23;;;25.90;50.30;;;;;;5054164;28;20517;-77
2023/09/16 09:23:24;;;;;;;5.73;5.23;;;25.90;50.20;;;;;;5054068;28;20449;-77
2023/09/16 09:25:52;;;;;;;5.73;5.27;;;26.00;50.30;;;;;;5054067;28;20478;-78
2023/09/16 09:28:22;;;;;;;5.87;5.37;;;26.00;50.30;;;;;;5054169;28;20438;-78
2023/09/16 09:30:53;;;;;;;5.67;5.17;;;26.10;50.10;;;;;;5054184;28;20454;-76
2023/09/16 09:33:22;;;;;;;5.43;5.03;;;26.20;50.10;;;;;;5054579;28;20454;-76
2023/09/16 09:35:50;;;;;;;6.17;5.50;;;26.30;50.00;;;;;;5053806;28;20504;-78
2023/09/16 09:38:19;;;;;;;5.90;5.40;;;26.40;49.90;;;;;;5053893;28;20441;-79
2023/09/16 09:40:58;;;;;;;5.43;4.93;;;26.50;49.70;;;;;;5054081;28;20821;-78
2023/09/16 09:43:31;;;;;;;5.23;4.83;;;26.50;49.70;;;;;;5054292;28;20409;-78
2023/09/16 09:45:59;;;;;;;6.73;5.30;;;26.60;49.70;;;;;;5054208;28;20421;-76
2023/09/16 09:48:27;;;;;;;5.57;5.10;;;26.70;49.80;;;;;;5053527;28;20439;-78
2023/09/16 09:50:56;;;;;;;5.57;5.17;;;26.80;49.60;;;;;;5053524;28;20413;-77
2023/09/16 09:53:24;;;;;;;5.33;4.93;;;26.90;49.40;;;;;;5053732;28;20504;-78
2023/09/16 09:55:52;;;;;;;5.53;5.13;;;26.90;49.40;;;;;;5055954;28;20567;-78
2023/09/16 09:58:21;;;;;;;5.17;4.77;;;27.00;49.50;;;;;;5060375;28;20449;-79
2023/09/16 10:00:51;;;;;;;5.77;5.27;;;27.00;49.50;;;;;;5057957;28;20425;-79
2023/09/16 10:03:22;;;;;;;4.80;4.43;;;27.10;49.40;;;;;;5054547;28;20476;-77
2023/09/16 10:05:51;;;;;;;5.37;4.97;;;27.30;49.50;;;;;;5053717;28;20459;-76
2023/09/16 10:08:18;;;;;;;4.80;4.50;;;27.40;49.40;;;;;;5054412;28;20437;-76
2023/09/16 10:10:47;;;;;;;5.30;4.90;;;27.60;49.10;;;;;;5053723;28;20423;-79
2023/09/16 10:13:15;;;;;;;4.87;4.50;;;27.70;49.00;;;;;;5053149;28;20831;-78
2023/09/16 10:15:43;;;;;;;4.90;4.50;;;27.80;48.60;;;;;;5052303;28;20437;-79
2023/09/16 10:18:13;;;;;;;5.00;4.60;;;28.00;48.70;;;;;;5053505;28;20944;-78
2023/09/16 10:20:43;;;;;;;5.60;5.10;;;28.20;48.40;;;;;;5053487;28;20409;-79
2023/09/16 10:23:11;;;;;;;4.67;4.37;;;28.50;48.20;;;;;;5054670;28;20413;-78
2023/09/16 10:25:39;;;;;;;4.90;4.60;;;28.60;47.90;;;;;;5053930;28;20462;-79
2023/09/16 10:28:08;;;;;;;4.60;4.30;;;28.80;47.80;;;;;;5052725;28;20951;-79
2023/09/16 10:30:37;;;;;;;4.50;4.20;;;28.90;47.70;;;;;;5053265;28;20414;-78
2023/09/16 10:33:06;;;;;;;5.30;4.90;;;29.00;47.50;;;;;;5054476;28;20971;-79
2023/09/16 10:35:38;;;;;;;4.80;4.50;;;29.10;47.50;;;;;;5054497;28;20462;-78
2023/09/16 10:38:07;;;;;;;4.80;4.50;;;29.20;47.30;;;;;;5052685;28;20465;-78
2023/09/16 10:40:37;;;;;;;4.30;4.00;;;29.30;47.30;;;;;;5052159;28;20927;-80
2023/09/16 10:43:06;;;;;;;5.13;4.57;;;29.50;47.20;;;;;;5053274;28;20425;-79
2023/09/16 10:45:33;;;;;;;5.17;4.77;;;29.50;46.90;;;;;;5053771;28;20500;-79
2023/09/16 10:48:02;;;;;;;4.40;4.10;;;29.60;46.90;;;;;;5053670;28;21205;-78
2023/09/16 10:50:35;;;;;;;4.20;4.00;;;29.60;46.80;;;;;;5052545;28;20493;-79
2023/09/16 10:53:06;;;;;;;4.23;4.03;;;29.60;46.80;;;;;;5054837;28;20423;-79
2023/09/16 10:55:36;;;;;;;4.17;3.97;;;29.60;46.80;;;;;;5054244;28;20486;-79
2023/09/16 10:58:07;;;;;;;3.87;3.67;;;29.60;46.80;;;;;;5052528;28;20450;-78
2023/09/16 11:00:38;;;;;;;4.97;4.13;;;29.60;46.90;;;;;;5051379;28;20470;-78
2023/09/16 11:03:06;;;;;;;4.47;4.17;;;29.60;46.90;;;;;;5053099;28;20442;-78
2023/09/16 11:05:34;;;;;;;4.30;4.00;;;29.60;46.90;;;;;;5052637;28;20462;-78
2023/09/16 11:08:06;;;;;;;4.43;4.23;;;29.60;47.00;;;;;;5052312;28;20446;-77
2023/09/16 11:10:34;;;;;;;5.17;4.77;;;29.50;47.00;;;;;;5052199;28;20406;-78
2023/09/16 11:13:02;;;;;;;4.50;4.20;;;29.50;47.20;;;;;;5052267;28;20444;-76
2023/09/16 11:15:32;;;;;;;4.67;4.37;;;29.50;47.30;;;;;;5051963;28;20497;-77
2023/09/16 11:18:04;;;;;;;4.37;4.07;;;29.50;47.30;;;;;;5052566;28;20980;-79
2023/09/16 11:20:33;;;;;;;4.50;4.20;;;29.60;47.40;;;;;;5052294;28;20882;-78
2023/09/16 11:23:02;;;;;;;4.37;4.07;;;29.60;47.20;;;;;;5052589;28;20508;-78
2023/09/16 11:25:33;;;;;;;4.23;4.03;;;29.70;47.30;;;;;;5051931;28;21068;-77
2023/09/16 11:28:07;;;;;;;4.60;4.30;;;29.90;47.10;;;;;;5051752;28;20470;-77
2023/09/16 11:30:36;;;;;;;4.37;4.07;;;30.00;47.00;;;;;;5051671;28;20447;-77
2023/09/16 11:33:09;;;;;;;4.13;3.83;;;30.30;46.90;;;;;;5051567;28;20421;-78
2023/09/16 11:35:38;;;;;;;4.67;4.37;;;30.60;46.80;;;;;;5051468;28;20445;-78
2023/09/16 11:38:06;;;;;;;3.90;3.70;;;31.00;46.40;;;;;;5051387;28;20450;-77
2023/09/16 11:40:36;;;;;;;3.70;3.50;;;31.40;45.80;;;;;;5050992;28;20474;-79
2023/09/16 11:43:05;;;;;;;3.77;3.60;;;31.70;45.30;;;;;;5051412;28;20508;-77
2023/09/16 11:45:33;;;;;;;4.07;3.87;;;31.90;45.10;;;;;;5050814;28;20836;-78
2023/09/16 11:48:02;;;;;;;3.60;3.50;;;32.20;44.50;;;;;;5051502;28;20446;-78
2023/09/16 11:50:31;;;;;;;4.00;3.80;;;32.40;44.50;;;;;;5051218;28;20462;-77
2023/09/16 11:52:59;;;;;;;3.53;3.43;;;32.70;44.20;;;;;;5051264;28;20496;-77
2023/09/16 11:55:28;;;;;;;3.80;3.50;;;32.90;43.80;;;;;;5050960;28;20489;-78
2023/09/16 11:57:57;;;;;;;3.90;3.70;;;33.00;43.40;;;;;;5051068;28;20470;-78
2023/09/16 12:00:25;;;;;;;4.40;4.20;;;32.90;43.30;;;;;;5051281;28;20572;-76
2023/09/16 12:02:53;;;;;;;3.60;3.40;;;33.10;43.70;;;;;;5051230;28;20481;-79
2023/09/16 12:05:23;;;;;;;3.53;3.33;;;33.40;43.60;;;;;;5050988;28;20524;-77
2023/09/16 12:07:52;;;;;;;3.73;3.53;;;33.70;43.20;;;;;;5051030;28;20456;-78
2023/09/16 12:10:19;;;;;;;3.40;3.30;;;33.80;42.90;;;;;;5050559;28;20431;-77
2023/09/16 12:12:51;;;;;;;3.20;3.07;;;34.00;42.60;;;;;;5054595;28;20450;-77
2023/09/16 12:15:20;;;;;;;3.47;3.27;;;34.20;42.40;;;;;;5055214;28;20516;-78
2023/09/16 12:17:49;;;;;;;3.03;2.93;;;34.30;42.20;;;;;;5055176;28;20450;-78
2023/09/16 12:20:17;;;;;;;3.20;3.10;;;34.50;42.10;;;;;;5054913;28;20466;-79
2023/09/16 12:22:47;;;;;;;3.33;3.23;;;34.70;41.90;;;;;;5054663;28;20534;-76
2023/09/16 12:25:16;;;;;;;3.00;2.90;;;34.90;41.80;;;;;;5055084;28;20501;-78
2023/09/16 12:27:44;;;;;;;3.30;3.10;;;35.00;41.70;;;;;;5055272;28;20442;-77
2023/09/16 12:30:13;;;;;;;3.13;3.03;;;35.10;41.50;;;;;;5054880;28;20973;-77
2023/09/16 12:32:51;;;;;;;2.90;2.80;;;35.20;41.30;;;;;;5055003;28;20415;-77
2023/09/16 12:35:19;;;;;;;2.90;2.80;;;35.40;41.30;;;;;;5054688;28;20458;-77
2023/09/16 12:37:48;;;;;;;3.20;3.10;;;35.50;41.10;;;;;;5054830;28;20451;-79
2023/09/16 12:40:16;;;;;;;2.77;2.67;;;35.60;41.00;;;;;;5054634;28;20484;-80
2023/09/16 12:42:44;;;;;;;2.80;2.70;;;35.80;40.90;;;;;;5054886;28;20442;-76
2023/09/16 12:45:12;;;;;;;3.03;2.87;;;35.90;41.50;;;;;;5054397;28;20556;-79
2023/09/16 12:47:40;;;;;;;2.53;2.43;;;35.90;40.60;;;;;;5054558;28;20462;-77
2023/09/16 12:50:10;;;;;;;3.10;3.00;;;36.00;40.50;;;;;;5054700;28;20462;-79